Terminal Aerodrome Forecast
Issued by NWS

Home | Current Version | Previous Version | Text Only | Print | Product List | Glossary On
Versions: 1 2 3 4 5 6 7 8 9 10 11 12 13 14
000
FTUS43 KICT 190500
TAFRSL
TAF
KRSL 190520Z 1906/2006 16016KT P6SM SCT250
     FM191400 19019G27KT P6SM BKN250
     FM191600 19024G33KT P6SM BKN250
     FM200100 17015G23KT P6SM BKN250=

USA.gov is the U.S. government's official web portal to all federal, state and local government web resources and services.